sensor_id;sensor_type;location;lat;lon;timestamp;P1;durP1;ratioP1;P2;durP2;ratioP2
15151;SDS011;7676;50.900;6.234;2022-10-18T00:03:07;8.70;;;7.87;;
15151;SDS011;7676;50.900;6.234;2022-10-18T00:08:10;8.67;;;7.87;;
15151;SDS011;7676;50.900;6.234;2022-10-18T00:13:12;9.13;;;8.20;;
15151;SDS011;7676;50.900;6.234;2022-10-18T00:18:15;9.33;;;8.43;;
15151;SDS011;7676;50.900;6.234;2022-10-18T00:23:17;9.40;;;8.40;;
15151;SDS011;7676;50.900;6.234;2022-10-18T00:28:20;9.67;;;8.77;;
15151;SDS011;7676;50.900;6.234;2022-10-18T00:33:22;9.90;;;8.80;;
15151;SDS011;7676;50.900;6.234;2022-10-18T00:38:24;10.53;;;9.07;;
15151;SDS011;7676;50.900;6.234;2022-10-18T00:43:27;9.87;;;8.87;;
15151;SDS011;7676;50.900;6.234;2022-10-18T00:48:29;10.23;;;9.00;;
15151;SDS011;7676;50.900;6.234;2022-10-18T00:53:32;9.30;;;8.43;;
15151;SDS011;7676;50.900;6.234;2022-10-18T00:58:34;10.07;;;8.97;;
15151;SDS011;7676;50.900;6.234;2022-10-18T01:03:36;10.03;;;9.00;;
15151;SDS011;7676;50.900;6.234;2022-10-18T01:13:55;11.40;;;9.27;;
15151;SDS011;7676;50.900;6.234;2022-10-18T01:30:37;10.97;;;9.00;;
15151;SDS011;7676;50.900;6.234;2022-10-18T01:35:50;10.93;;;9.70;;
15151;SDS011;7676;50.900;6.234;2022-10-18T01:40:58;11.83;;;10.20;;
15151;SDS011;7676;50.900;6.234;2022-10-18T01:46:02;11.10;;;9.97;;
15151;SDS011;7676;50.900;6.234;2022-10-18T01:51:05;10.77;;;9.67;;
15151;SDS011;7676;50.900;6.234;2022-10-18T02:01:36;12.10;;;9.97;;
15151;SDS011;7676;50.900;6.234;2022-10-18T02:06:42;10.90;;;9.80;;
15151;SDS011;7676;50.900;6.234;2022-10-18T02:11:46;10.97;;;9.87;;
15151;SDS011;7676;50.900;6.234;2022-10-18T02:16:51;9.70;;;8.67;;
15151;SDS011;7676;50.900;6.234;2022-10-18T02:21:57;8.87;;;7.97;;
15151;SDS011;7676;50.900;6.234;2022-10-18T02:27:01;8.73;;;7.90;;
15151;SDS011;7676;50.900;6.234;2022-10-18T02:37:12;7.97;;;7.17;;
15151;SDS011;7676;50.900;6.234;2022-10-18T02:42:15;6.73;;;6.17;;
15151;SDS011;7676;50.900;6.234;2022-10-18T02:47:17;6.97;;;6.27;;
15151;SDS011;7676;50.900;6.234;2022-10-18T02:52:20;6.57;;;5.97;;
15151;SDS011;7676;50.900;6.234;2022-10-18T02:57:22;5.93;;;5.33;;
15151;SDS011;7676;50.900;6.234;2022-10-18T03:02:25;6.47;;;5.87;;
15151;SDS011;7676;50.900;6.234;2022-10-18T03:07:27;6.43;;;5.77;;
15151;SDS011;7676;50.900;6.234;2022-10-18T03:12:30;8.37;;;6.73;;
15151;SDS011;7676;50.900;6.234;2022-10-18T03:17:32;7.03;;;6.33;;
15151;SDS011;7676;50.900;6.234;2022-10-18T03:22:35;7.13;;;6.53;;
15151;SDS011;7676;50.900;6.234;2022-10-18T03:27:37;6.67;;;6.03;;
15151;SDS011;7676;50.900;6.234;2022-10-18T03:32:40;7.00;;;6.30;;
15151;SDS011;7676;50.900;6.234;2022-10-18T03:37:43;7.27;;;6.60;;
15151;SDS011;7676;50.900;6.234;2022-10-18T03:42:45;6.77;;;6.20;;
15151;SDS011;7676;50.900;6.234;2022-10-18T03:47:47;7.00;;;6.37;;
15151;SDS011;7676;50.900;6.234;2022-10-18T03:52:49;7.37;;;6.57;;
15151;SDS011;7676;50.900;6.234;2022-10-18T03:57:52;7.53;;;6.53;;
15151;SDS011;7676;50.900;6.234;2022-10-18T04:02:54;6.63;;;5.97;;
15151;SDS011;7676;50.900;6.234;2022-10-18T04:07:57;8.23;;;6.97;;
15151;SDS011;7676;50.900;6.234;2022-10-18T04:12:59;6.80;;;6.10;;
15151;SDS011;7676;50.900;6.234;2022-10-18T04:18:02;6.40;;;5.80;;
15151;SDS011;7676;50.900;6.234;2022-10-18T04:23:05;6.90;;;5.73;;
15151;SDS011;7676;50.900;6.234;2022-10-18T04:28:07;6.90;;;6.20;;
15151;SDS011;7676;50.900;6.234;2022-10-18T04:33:10;7.00;;;6.13;;
15151;SDS011;7676;50.900;6.234;2022-10-18T04:38:12;7.63;;;6.83;;
15151;SDS011;7676;50.900;6.234;2022-10-18T04:43:15;8.63;;;7.73;;
15151;SDS011;7676;50.900;6.234;2022-10-18T04:48:18;8.73;;;7.83;;
15151;SDS011;7676;50.900;6.234;2022-10-18T04:53:21;9.97;;;9.03;;
15151;SDS011;7676;50.900;6.234;2022-10-18T04:58:23;8.93;;;7.87;;
15151;SDS011;7676;50.900;6.234;2022-10-18T05:03:26;12.90;;;11.23;;
15151;SDS011;7676;50.900;6.234;2022-10-18T05:08:28;14.23;;;11.80;;
15151;SDS011;7676;50.900;6.234;2022-10-18T05:13:35;17.47;;;14.73;;
15151;SDS011;7676;50.900;6.234;2022-10-18T05:18:39;17.30;;;14.63;;
15151;SDS011;7676;50.900;6.234;2022-10-18T05:23:41;18.43;;;16.53;;
15151;SDS011;7676;50.900;6.234;2022-10-18T05:28:43;19.63;;;17.13;;
15151;SDS011;7676;50.900;6.234;2022-10-18T05:33:46;18.33;;;16.23;;
15151;SDS011;7676;50.900;6.234;2022-10-18T05:38:48;21.40;;;18.60;;
15151;SDS011;7676;50.900;6.234;2022-10-18T05:43:51;20.03;;;16.27;;
15151;SDS011;7676;50.900;6.234;2022-10-18T05:48:53;24.70;;;20.93;;
15151;SDS011;7676;50.900;6.234;2022-10-18T05:53:55;23.93;;;20.60;;
15151;SDS011;7676;50.900;6.234;2022-10-18T05:58:58;24.17;;;20.70;;
15151;SDS011;7676;50.900;6.234;2022-10-18T06:04:01;23.60;;;20.67;;
15151;SDS011;7676;50.900;6.234;2022-10-18T06:09:03;28.30;;;21.77;;
15151;SDS011;7676;50.900;6.234;2022-10-18T06:14:08;30.10;;;23.40;;
15151;SDS011;7676;50.900;6.234;2022-10-18T06:19:10;29.00;;;23.67;;
15151;SDS011;7676;50.900;6.234;2022-10-18T06:24:13;32.37;;;25.80;;
15151;SDS011;7676;50.900;6.234;2022-10-18T06:29:15;35.77;;;26.33;;
15151;SDS011;7676;50.900;6.234;2022-10-18T06:34:18;33.73;;;26.73;;
15151;SDS011;7676;50.900;6.234;2022-10-18T06:39:20;36.07;;;27.23;;
15151;SDS011;7676;50.900;6.234;2022-10-18T06:44:22;35.77;;;27.40;;
15151;SDS011;7676;50.900;6.234;2022-10-18T06:49:25;38.37;;;28.30;;
15151;SDS011;7676;50.900;6.234;2022-10-18T06:54:27;36.73;;;27.30;;
15151;SDS011;7676;50.900;6.234;2022-10-18T06:59:29;36.77;;;27.70;;
15151;SDS011;7676;50.900;6.234;2022-10-18T07:04:32;38.07;;;28.57;;
15151;SDS011;7676;50.900;6.234;2022-10-18T07:09:36;42.20;;;29.13;;
15151;SDS011;7676;50.900;6.234;2022-10-18T07:14:38;41.77;;;30.30;;
15151;SDS011;7676;50.900;6.234;2022-10-18T07:19:41;41.77;;;30.37;;
15151;SDS011;7676;50.900;6.234;2022-10-18T07:24:44;44.70;;;31.53;;
15151;SDS011;7676;50.900;6.234;2022-10-18T07:29:46;45.27;;;31.13;;
15151;SDS011;7676;50.900;6.234;2022-10-18T07:34:51;49.80;;;31.53;;
15151;SDS011;7676;50.900;6.234;2022-10-18T07:39:53;47.60;;;32.13;;
15151;SDS011;7676;50.900;6.234;2022-10-18T07:44:56;43.47;;;30.40;;
15151;SDS011;7676;50.900;6.234;2022-10-18T07:49:58;45.87;;;31.23;;
15151;SDS011;7676;50.900;6.234;2022-10-18T07:55:00;45.30;;;30.20;;
15151;SDS011;7676;50.900;6.234;2022-10-18T08:00:03;43.97;;;30.33;;
15151;SDS011;7676;50.900;6.234;2022-10-18T08:05:12;40.13;;;29.53;;
15151;SDS011;7676;50.900;6.234;2022-10-18T08:10:14;39.00;;;28.27;;
15151;SDS011;7676;50.900;6.234;2022-10-18T08:15:16;37.23;;;27.23;;
15151;SDS011;7676;50.900;6.234;2022-10-18T08:20:19;37.83;;;29.63;;
15151;SDS011;7676;50.900;6.234;2022-10-18T08:25:32;36.17;;;26.90;;
15151;SDS011;7676;50.900;6.234;2022-10-18T08:30:40;45.93;;;30.23;;
15151;SDS011;7676;50.900;6.234;2022-10-18T08:35:42;46.83;;;34.17;;
15151;SDS011;7676;50.900;6.234;2022-10-18T08:40:44;47.93;;;33.43;;
15151;SDS011;7676;50.900;6.234;2022-10-18T08:45:47;51.47;;;33.53;;
15151;SDS011;7676;50.900;6.234;2022-10-18T08:50:51;49.87;;;33.30;;
15151;SDS011;7676;50.900;6.234;2022-10-18T08:55:59;47.57;;;32.43;;
15151;SDS011;7676;50.900;6.234;2022-10-18T09:06:31;48.47;;;32.03;;
15151;SDS011;7676;50.900;6.234;2022-10-18T09:12:07;44.53;;;31.47;;
15151;SDS011;7676;50.900;6.234;2022-10-18T09:17:34;38.73;;;28.77;;
15151;SDS011;7676;50.900;6.234;2022-10-18T09:23:01;40.43;;;29.37;;
15151;SDS011;7676;50.900;6.234;2022-10-18T09:28:28;39.93;;;29.13;;
15151;SDS011;7676;50.900;6.234;2022-10-18T09:39:04;33.93;;;27.10;;
15151;SDS011;7676;50.900;6.234;2022-10-18T09:44:20;37.93;;;27.33;;
15151;SDS011;7676;50.900;6.234;2022-10-18T09:49:42;36.47;;;27.90;;
15151;SDS011;7676;50.900;6.234;2022-10-18T09:54:52;37.67;;;28.03;;
15151;SDS011;7676;50.900;6.234;2022-10-18T10:00:03;36.00;;;25.97;;
15151;SDS011;7676;50.900;6.234;2022-10-18T10:05:18;37.93;;;28.67;;
15151;SDS011;7676;50.900;6.234;2022-10-18T10:10:23;43.37;;;30.70;;
15151;SDS011;7676;50.900;6.234;2022-10-18T10:15:31;44.70;;;31.33;;
15151;SDS011;7676;50.900;6.234;2022-10-18T10:20:46;39.87;;;29.10;;
15151;SDS011;7676;50.900;6.234;2022-10-18T10:25:52;44.83;;;32.57;;
15151;SDS011;7676;50.900;6.234;2022-10-18T10:36:19;48.30;;;35.70;;
15151;SDS011;7676;50.900;6.234;2022-10-18T10:41:22;45.93;;;33.70;;
15151;SDS011;7676;50.900;6.234;2022-10-18T10:46:25;47.13;;;33.23;;
15151;SDS011;7676;50.900;6.234;2022-10-18T10:51:36;48.83;;;33.77;;
15151;SDS011;7676;50.900;6.234;2022-10-18T11:18:24;47.77;;;31.80;;
15151;SDS011;7676;50.900;6.234;2022-10-18T11:23:36;39.87;;;28.37;;
15151;SDS011;7676;50.900;6.234;2022-10-18T11:34:29;36.07;;;25.63;;
15151;SDS011;7676;50.900;6.234;2022-10-18T11:39:58;38.67;;;27.10;;
15151;SDS011;7676;50.900;6.234;2022-10-18T11:45:56;40.87;;;27.07;;
15151;SDS011;7676;50.900;6.234;2022-10-18T11:51:00;41.43;;;29.67;;
15151;SDS011;7676;50.900;6.234;2022-10-18T11:56:13;44.17;;;30.93;;
15151;SDS011;7676;50.900;6.234;2022-10-18T12:01:33;42.43;;;30.53;;
15151;SDS011;7676;50.900;6.234;2022-10-18T12:06:41;41.83;;;29.57;;
15151;SDS011;7676;50.900;6.234;2022-10-18T12:11:45;34.50;;;27.23;;
15151;SDS011;7676;50.900;6.234;2022-10-18T12:16:57;28.87;;;22.93;;
15151;SDS011;7676;50.900;6.234;2022-10-18T12:22:37;29.80;;;22.73;;
15151;SDS011;7676;50.900;6.234;2022-10-18T12:33:09;26.33;;;21.00;;
15151;SDS011;7676;50.900;6.234;2022-10-18T12:38:33;25.07;;;19.73;;
15151;SDS011;7676;50.900;6.234;2022-10-18T12:43:37;23.77;;;19.00;;
15151;SDS011;7676;50.900;6.234;2022-10-18T12:48:41;31.60;;;22.93;;
15151;SDS011;7676;50.900;6.234;2022-10-18T12:53:47;22.37;;;18.33;;
15151;SDS011;7676;50.900;6.234;2022-10-18T13:09:36;19.73;;;16.80;;
15151;SDS011;7676;50.900;6.234;2022-10-18T13:26:35;19.27;;;16.50;;
15151;SDS011;7676;50.900;6.234;2022-10-18T13:36:30;18.17;;;14.37;;
15151;SDS011;7676;50.900;6.234;2022-10-18T14:08:11;17.60;;;14.53;;
15151;SDS011;7676;50.900;6.234;2022-10-18T14:13:44;18.67;;;15.27;;
15151;SDS011;7676;50.900;6.234;2022-10-18T14:19:16;21.27;;;15.63;;
15151;SDS011;7676;50.900;6.234;2022-10-18T14:24:22;23.53;;;15.87;;
15151;SDS011;7676;50.900;6.234;2022-10-18T14:29:26;21.93;;;16.40;;
15151;SDS011;7676;50.900;6.234;2022-10-18T14:34:29;19.60;;;15.77;;
15151;SDS011;7676;50.900;6.234;2022-10-18T14:39:31;17.50;;;14.00;;
15151;SDS011;7676;50.900;6.234;2022-10-18T14:44:34;20.57;;;14.80;;
15151;SDS011;7676;50.900;6.234;2022-10-18T14:49:41;19.10;;;13.43;;
15151;SDS011;7676;50.900;6.234;2022-10-18T14:54:47;17.77;;;11.63;;
15151;SDS011;7676;50.900;6.234;2022-10-18T14:59:51;11.97;;;8.17;;
15151;SDS011;7676;50.900;6.234;2022-10-18T15:05:04;11.93;;;7.07;;
15151;SDS011;7676;50.900;6.234;2022-10-18T15:10:06;10.37;;;6.07;;
15151;SDS011;7676;50.900;6.234;2022-10-18T15:15:25;12.20;;;7.00;;
15151;SDS011;7676;50.900;6.234;2022-10-18T15:20:32;11.90;;;6.63;;
15151;SDS011;7676;50.900;6.234;2022-10-18T15:25:40;11.07;;;7.27;;
15151;SDS011;7676;50.900;6.234;2022-10-18T15:30:42;13.07;;;7.17;;
15151;SDS011;7676;50.900;6.234;2022-10-18T15:35:44;12.33;;;7.27;;
15151;SDS011;7676;50.900;6.234;2022-10-18T15:40:47;11.33;;;7.57;;
15151;SDS011;7676;50.900;6.234;2022-10-18T15:45:50;15.57;;;9.30;;
15151;SDS011;7676;50.900;6.234;2022-10-18T15:50:53;17.00;;;9.67;;
15151;SDS011;7676;50.900;6.234;2022-10-18T15:56:00;14.33;;;9.20;;
15151;SDS011;7676;50.900;6.234;2022-10-18T16:01:20;14.57;;;9.27;;
15151;SDS011;7676;50.900;6.234;2022-10-18T16:06:25;14.43;;;9.27;;
15151;SDS011;7676;50.900;6.234;2022-10-18T16:11:27;14.83;;;9.97;;
15151;SDS011;7676;50.900;6.234;2022-10-18T16:16:30;15.27;;;10.60;;
15151;SDS011;7676;50.900;6.234;2022-10-18T16:21:33;15.30;;;10.53;;
15151;SDS011;7676;50.900;6.234;2022-10-18T16:26:38;16.80;;;11.50;;
15151;SDS011;7676;50.900;6.234;2022-10-18T16:31:40;17.83;;;12.07;;
15151;SDS011;7676;50.900;6.234;2022-10-18T16:36:43;17.17;;;12.67;;
15151;SDS011;7676;50.900;6.234;2022-10-18T16:41:45;20.40;;;12.73;;
15151;SDS011;7676;50.900;6.234;2022-10-18T16:46:48;19.07;;;12.70;;
15151;SDS011;7676;50.900;6.234;2022-10-18T16:51:57;20.10;;;12.03;;
15151;SDS011;7676;50.900;6.234;2022-10-18T16:57:00;16.37;;;12.07;;
15151;SDS011;7676;50.900;6.234;2022-10-18T17:02:03;23.67;;;15.53;;
15151;SDS011;7676;50.900;6.234;2022-10-18T17:07:11;21.83;;;14.53;;
15151;SDS011;7676;50.900;6.234;2022-10-18T17:12:24;18.97;;;13.57;;
15151;SDS011;7676;50.900;6.234;2022-10-18T17:17:26;25.13;;;17.33;;
15151;SDS011;7676;50.900;6.234;2022-10-18T17:22:28;31.07;;;21.20;;
15151;SDS011;7676;50.900;6.234;2022-10-18T17:27:31;28.80;;;20.50;;
15151;SDS011;7676;50.900;6.234;2022-10-18T17:32:33;27.53;;;18.10;;
15151;SDS011;7676;50.900;6.234;2022-10-18T17:37:36;24.07;;;16.77;;
15151;SDS011;7676;50.900;6.234;2022-10-18T17:42:46;23.27;;;16.27;;
15151;SDS011;7676;50.900;6.234;2022-10-18T17:47:49;22.60;;;16.40;;
15151;SDS011;7676;50.900;6.234;2022-10-18T17:52:51;24.47;;;16.23;;
15151;SDS011;7676;50.900;6.234;2022-10-18T17:57:53;29.63;;;20.03;;
15151;SDS011;7676;50.900;6.234;2022-10-18T18:02:56;22.90;;;15.23;;
15151;SDS011;7676;50.900;6.234;2022-10-18T18:08:03;22.47;;;17.00;;
15151;SDS011;7676;50.900;6.234;2022-10-18T18:13:06;23.40;;;17.30;;
15151;SDS011;7676;50.900;6.234;2022-10-18T18:18:09;29.10;;;25.90;;
15151;SDS011;7676;50.900;6.234;2022-10-18T18:23:11;30.37;;;24.50;;
15151;SDS011;7676;50.900;6.234;2022-10-18T18:28:13;24.10;;;18.43;;
15151;SDS011;7676;50.900;6.234;2022-10-18T18:33:16;22.43;;;18.57;;
15151;SDS011;7676;50.900;6.234;2022-10-18T18:38:18;21.07;;;17.50;;
15151;SDS011;7676;50.900;6.234;2022-10-18T18:43:21;23.10;;;18.80;;
15151;SDS011;7676;50.900;6.234;2022-10-18T18:48:25;22.73;;;17.63;;
15151;SDS011;7676;50.900;6.234;2022-10-18T18:53:28;20.87;;;14.47;;
15151;SDS011;7676;50.900;6.234;2022-10-18T18:58:31;20.50;;;15.30;;
15151;SDS011;7676;50.900;6.234;2022-10-18T19:03:35;21.27;;;16.13;;
15151;SDS011;7676;50.900;6.234;2022-10-18T19:08:39;21.03;;;15.80;;
15151;SDS011;7676;50.900;6.234;2022-10-18T19:13:43;21.93;;;15.50;;
15151;SDS011;7676;50.900;6.234;2022-10-18T19:18:52;19.63;;;14.63;;
15151;SDS011;7676;50.900;6.234;2022-10-18T19:23:57;21.00;;;16.00;;
15151;SDS011;7676;50.900;6.234;2022-10-18T19:29:01;23.77;;;19.37;;
15151;SDS011;7676;50.900;6.234;2022-10-18T19:34:06;24.30;;;18.43;;
15151;SDS011;7676;50.900;6.234;2022-10-18T19:39:12;45.03;;;37.30;;
15151;SDS011;7676;50.900;6.234;2022-10-18T19:44:29;48.80;;;40.77;;
15151;SDS011;7676;50.900;6.234;2022-10-18T19:49:32;41.27;;;32.70;;
15151;SDS011;7676;50.900;6.234;2022-10-18T19:54:35;35.77;;;30.37;;
15151;SDS011;7676;50.900;6.234;2022-10-18T19:59:37;33.73;;;27.90;;
15151;SDS011;7676;50.900;6.234;2022-10-18T20:04:45;32.43;;;25.23;;
15151;SDS011;7676;50.900;6.234;2022-10-18T20:09:47;30.70;;;22.03;;
15151;SDS011;7676;50.900;6.234;2022-10-18T20:14:50;27.87;;;21.47;;
15151;SDS011;7676;50.900;6.234;2022-10-18T20:19:52;25.07;;;20.20;;
15151;SDS011;7676;50.900;6.234;2022-10-18T20:24:55;27.00;;;19.23;;
15151;SDS011;7676;50.900;6.234;2022-10-18T20:29:58;24.23;;;18.53;;
15151;SDS011;7676;50.900;6.234;2022-10-18T20:35:00;23.67;;;18.67;;
15151;SDS011;7676;50.900;6.234;2022-10-18T20:40:03;23.73;;;17.33;;
15151;SDS011;7676;50.900;6.234;2022-10-18T20:45:05;25.20;;;17.90;;
15151;SDS011;7676;50.900;6.234;2022-10-18T20:50:09;24.07;;;17.33;;
15151;SDS011;7676;50.900;6.234;2022-10-18T20:55:11;22.07;;;17.20;;
15151;SDS011;7676;50.900;6.234;2022-10-18T21:00:14;20.83;;;16.13;;
15151;SDS011;7676;50.900;6.234;2022-10-18T21:05:16;19.60;;;14.93;;
15151;SDS011;7676;50.900;6.234;2022-10-18T21:10:19;20.63;;;15.03;;
15151;SDS011;7676;50.900;6.234;2022-10-18T21:15:21;21.60;;;15.30;;
15151;SDS011;7676;50.900;6.234;2022-10-18T21:20:23;18.93;;;14.37;;
15151;SDS011;7676;50.900;6.234;2022-10-18T21:25:26;21.27;;;14.53;;
15151;SDS011;7676;50.900;6.234;2022-10-18T21:30:28;19.33;;;14.10;;
15151;SDS011;7676;50.900;6.234;2022-10-18T21:35:33;18.83;;;14.83;;
15151;SDS011;7676;50.900;6.234;2022-10-18T21:40:39;22.00;;;15.20;;
15151;SDS011;7676;50.900;6.234;2022-10-18T21:45:45;17.23;;;13.87;;
15151;SDS011;7676;50.900;6.234;2022-10-18T21:50:47;19.37;;;13.97;;
15151;SDS011;7676;50.900;6.234;2022-10-18T21:55:50;19.77;;;15.50;;
15151;SDS011;7676;50.900;6.234;2022-10-18T22:00:52;20.67;;;14.90;;
15151;SDS011;7676;50.900;6.234;2022-10-18T22:05:59;17.37;;;14.37;;
15151;SDS011;7676;50.900;6.234;2022-10-18T22:11:02;19.17;;;13.43;;
15151;SDS011;7676;50.900;6.234;2022-10-18T22:16:05;19.13;;;14.07;;
15151;SDS011;7676;50.900;6.234;2022-10-18T22:21:10;19.37;;;14.47;;
15151;SDS011;7676;50.900;6.234;2022-10-18T22:26:17;19.97;;;13.57;;
15151;SDS011;7676;50.900;6.234;2022-10-18T22:31:23;19.67;;;13.37;;
15151;SDS011;7676;50.900;6.234;2022-10-18T22:36:27;17.83;;;12.50;;
15151;SDS011;7676;50.900;6.234;2022-10-18T22:41:29;19.30;;;13.20;;
15151;SDS011;7676;50.900;6.234;2022-10-18T22:46:32;16.87;;;12.70;;
15151;SDS011;7676;50.900;6.234;2022-10-18T22:51:35;17.17;;;12.93;;
15151;SDS011;7676;50.900;6.234;2022-10-18T22:56:38;17.70;;;12.43;;
15151;SDS011;7676;50.900;6.234;2022-10-18T23:01:40;18.37;;;12.07;;
15151;SDS011;7676;50.900;6.234;2022-10-18T23:06:42;15.93;;;11.30;;
15151;SDS011;7676;50.900;6.234;2022-10-18T23:11:45;15.77;;;11.30;;
15151;SDS011;7676;50.900;6.234;2022-10-18T23:16:48;14.03;;;8.97;;
15151;SDS011;7676;50.900;6.234;2022-10-18T23:21:51;15.30;;;8.53;;
15151;SDS011;7676;50.900;6.234;2022-10-18T23:26:53;12.77;;;7.70;;
15151;SDS011;7676;50.900;6.234;2022-10-18T23:31:55;11.77;;;7.80;;
15151;SDS011;7676;50.900;6.234;2022-10-18T23:36:58;13.30;;;8.00;;
15151;SDS011;7676;50.900;6.234;2022-10-18T23:42:00;12.30;;;8.13;;
15151;SDS011;7676;50.900;6.234;2022-10-18T23:47:02;12.67;;;7.13;;
15151;SDS011;7676;50.900;6.234;2022-10-18T23:52:05;12.43;;;7.50;;
15151;SDS011;7676;50.900;6.234;2022-10-18T23:57:07;11.43;;;7.07;;
